Mont-Tremblant, Canada
Current Conditions -  °F | °C
As of 2:00 PM on Saturday 25 Oct 2014 (Local Time) from CYMX Reporting Station
Overcast Overcast  
Wind Chill: 54°   Ceiling: 2200
Heat Index: 54°   Visibility: 25mi
Dew Point: 43°   Wind: 10mph
Humidity: 67%   Direction: 190°S
Pressure: 29.56"   Gusts: NA
Location:  46.12°N, 74.6°W
Report Text: CYMX 251800Z 19009KT 180V260 25SM BKN022 OVC150 12/06 A2956 RMK SC6AC2 SLP013 DENSITY ALT 300FT
Loading
Personal Weather Stations






























Interactive Weather Map
Tropical Storm Tracking
New forecast layout! Learn more

10-Day Weather Forecast

Advertisements
Track Severe Weather on mobile